createdAt,value
2023-03-03T00:00:55.355Z,101987.84
2023-03-03T00:03:28.076Z,101996.81
2023-03-03T00:05:58.992Z,101988.13
2023-03-03T00:08:31.797Z,102005.28
2023-03-03T00:11:01.307Z,101988.97
2023-03-03T00:13:43.820Z,102017.16
2023-03-03T00:16:24.831Z,102023.53
2023-03-03T00:19:01.659Z,102022.34
2023-03-03T00:21:36.694Z,102018.59
2023-03-03T00:24:27.184Z,102032.06
2023-03-03T00:26:58.504Z,102022.75
2023-03-03T00:29:31.643Z,102033.59
2023-03-03T00:32:08.297Z,102025.13
2023-03-03T00:34:39.738Z,102007.88
2023-03-03T00:37:24.814Z,102014.31
2023-03-03T00:39:53.877Z,101983.28
2023-03-03T00:42:25.888Z,102005.13
2023-03-03T00:44:59.111Z,101983.34
2023-03-03T00:47:39.998Z,101994.91
2023-03-03T00:50:07.857Z,102019.91
2023-03-03T00:52:41.091Z,101983.47
2023-03-03T00:55:10.849Z,101984.50
2023-03-03T00:57:41.593Z,101994.38
2023-03-03T01:00:20.075Z,101991.94
2023-03-03T01:02:50.158Z,101984.75
2023-03-03T01:05:19.975Z,101971.06
2023-03-03T01:07:50.104Z,101989.25
2023-03-03T01:10:18.762Z,101985.13
2023-03-03T01:12:46.382Z,101976.50
2023-03-03T01:15:16.336Z,101983.47
2023-03-03T01:20:32.496Z,101986.09
2023-03-03T01:23:07.122Z,101989.91
2023-03-03T01:25:35.450Z,102003.25
2023-03-03T01:28:04.907Z,101978.41
2023-03-03T01:30:34.626Z,101971.34
2023-03-03T01:33:04.264Z,101968.63
2023-03-03T01:35:33.283Z,101987.81
2023-03-03T01:38:02.894Z,101989.09
2023-03-03T01:40:33.022Z,101976.66
2023-03-03T01:43:02.470Z,101984.44
2023-03-03T01:45:33.158Z,101954.31
2023-03-03T01:48:08.799Z,101944.06
2023-03-03T01:50:42.517Z,101963.97
2023-03-03T01:53:19.119Z,101946.47
2023-03-03T01:55:51.742Z,101943.88
2023-03-03T01:58:27.921Z,101945.16
2023-03-03T02:01:05.845Z,101946.97
2023-03-03T02:03:36.803Z,101940.16
2023-03-03T02:06:09.734Z,101941.13
2023-03-03T02:08:43.453Z,101939.19
2023-03-03T02:11:13.857Z,101935.81
2023-03-03T02:13:48.960Z,101949.94
2023-03-03T02:16:19.306Z,101941.81
2023-03-03T02:18:50.852Z,101952.69
2023-03-03T02:21:28.831Z,101949.25
2023-03-03T02:24:07.552Z,101957.06
2023-03-03T02:26:40.122Z,101970.63
2023-03-03T02:29:13.511Z,101987.19
2023-03-03T02:31:44.720Z,101962.72
2023-03-03T02:34:13.125Z,101970.00
2023-03-03T02:36:45.263Z,101959.97
2023-03-03T02:39:24.486Z,101973.47
2023-03-03T02:42:10.043Z,101978.88
2023-03-03T02:44:44.855Z,101956.47
2023-03-03T02:47:13.086Z,101964.75
2023-03-03T02:49:43.065Z,101955.09
2023-03-03T02:52:11.995Z,101947.53
2023-03-03T02:54:46.250Z,101963.66
2023-03-03T02:57:15.202Z,101969.53
2023-03-03T02:59:44.323Z,101959.16
2023-03-03T03:02:18.355Z,101965.38
2023-03-03T03:04:48.764Z,101969.72
2023-03-03T03:07:25.908Z,101959.22
2023-03-03T03:09:56.661Z,101966.94
2023-03-03T03:12:26.157Z,101969.69
2023-03-03T03:14:56.916Z,101962.50
2023-03-03T03:17:26.044Z,101983.22
2023-03-03T03:19:56.271Z,101963.53
2023-03-03T03:22:26.637Z,101979.72
2023-03-03T03:24:58.370Z,101978.38
2023-03-03T03:27:26.261Z,101988.16
2023-03-03T03:30:01.794Z,101994.28
2023-03-03T03:32:34.340Z,101982.69
2023-03-03T03:35:04.511Z,102006.34
2023-03-03T03:37:33.974Z,101996.38
2023-03-03T03:40:05.345Z,101985.31
2023-03-03T03:42:34.789Z,101994.13
2023-03-03T03:45:04.072Z,101990.06
2023-03-03T03:47:33.161Z,101998.25
2023-03-03T03:50:02.710Z,101985.59
2023-03-03T03:52:31.973Z,101996.75
2023-03-03T03:55:00.824Z,101980.63
2023-03-03T03:57:33.734Z,101971.63
2023-03-03T04:00:03.849Z,101977.19
2023-03-03T04:02:54.020Z,101979.94
2023-03-03T04:05:27.223Z,101963.00
2023-03-03T04:08:00.243Z,101973.63
2023-03-03T04:10:29.462Z,101974.69
2023-03-03T04:13:01.304Z,101951.00
2023-03-03T04:15:31.760Z,101957.22
2023-03-03T04:18:01.632Z,101970.09
2023-03-03T04:20:32.013Z,101955.06
2023-03-03T04:23:00.286Z,101963.75
2023-03-03T04:25:29.777Z,101957.13
2023-03-03T04:27:57.751Z,101955.19
2023-03-03T04:30:28.266Z,101965.59
2023-03-03T04:32:59.553Z,101953.31
2023-03-03T04:35:28.168Z,101957.06
2023-03-03T04:38:00.918Z,101940.50
2023-03-03T04:40:30.245Z,101949.34
2023-03-03T04:43:00.941Z,101952.88
2023-03-03T04:45:32.605Z,101949.66
2023-03-03T04:48:02.026Z,101939.03
2023-03-03T04:50:35.136Z,101935.47
2023-03-03T04:53:07.955Z,101949.47
2023-03-03T04:55:39.968Z,101947.69
2023-03-03T04:58:11.890Z,101964.19
2023-03-03T05:00:41.844Z,101948.47
2023-03-03T05:03:13.820Z,101942.34
2023-03-03T05:05:43.889Z,101951.63
2023-03-03T05:08:14.363Z,101966.88
2023-03-03T05:10:43.918Z,101951.78
2023-03-03T05:13:16.081Z,101956.47
2023-03-03T05:15:45.587Z,101947.69
2023-03-03T05:18:14.894Z,101948.69
2023-03-03T05:20:44.132Z,101933.06
2023-03-03T05:23:14.120Z,101937.53
2023-03-03T05:25:43.522Z,101951.16
2023-03-03T05:28:14.256Z,101942.19
2023-03-03T05:30:41.383Z,101938.91
2023-03-03T05:33:09.152Z,101949.59
2023-03-03T05:35:42.318Z,101937.44
2023-03-03T05:38:12.502Z,101945.44
2023-03-03T05:40:42.804Z,101926.69
2023-03-03T05:43:14.436Z,101945.31
2023-03-03T05:45:43.521Z,101933.72
2023-03-03T05:48:13.845Z,101962.78
2023-03-03T05:50:44.344Z,101963.41
2023-03-03T05:53:15.969Z,101972.78
2023-03-03T05:55:54.304Z,101980.38
2023-03-03T05:58:24.373Z,101960.38
2023-03-03T06:00:54.410Z,101959.91
2023-03-03T06:03:24.582Z,101979.00
2023-03-03T06:05:58.759Z,101978.31
2023-03-03T06:08:39.923Z,101974.34
2023-03-03T06:11:13.727Z,101985.22
2023-03-03T06:13:45.318Z,101961.22
2023-03-03T06:16:15.444Z,101965.25
2023-03-03T06:18:47.201Z,101965.44
2023-03-03T06:21:20.492Z,101972.97
2023-03-03T06:23:50.452Z,101981.16
2023-03-03T06:26:25.765Z,101976.06
2023-03-03T06:28:55.800Z,101998.44
2023-03-03T06:31:30.500Z,102007.38
2023-03-03T06:34:00.609Z,101999.22
2023-03-03T06:36:29.926Z,101993.69
2023-03-03T06:38:59.333Z,101993.97
2023-03-03T06:41:28.203Z,101992.44
2023-03-03T06:43:58.782Z,101987.25
2023-03-03T06:46:28.410Z,101989.91
2023-03-03T06:48:57.658Z,102003.44
2023-03-03T06:51:29.101Z,101997.44
2023-03-03T06:54:00.350Z,101985.56
2023-03-03T06:56:38.097Z,102005.75
2023-03-03T06:59:19.016Z,101998.22
2023-03-03T07:01:51.619Z,102007.81
2023-03-03T07:04:35.699Z,102013.94
2023-03-03T07:07:34.614Z,102008.06
2023-03-03T07:10:22.491Z,102016.06
2023-03-03T07:15:38.514Z,102027.44
2023-03-03T07:18:32.779Z,102022.38
2023-03-03T07:21:14.188Z,102050.50
2023-03-03T07:23:45.283Z,102043.22
2023-03-03T07:26:30.298Z,102046.03
2023-03-03T07:29:11.172Z,102035.63
2023-03-03T07:31:40.285Z,102019.88
2023-03-03T07:34:22.714Z,102042.09
2023-03-03T07:36:55.130Z,102036.75
2023-03-03T07:39:40.285Z,102025.41
2023-03-03T07:42:24.262Z,102025.22
2023-03-03T07:45:06.499Z,102042.81
2023-03-03T07:47:38.988Z,102065.31
2023-03-03T07:50:20.965Z,102061.22
2023-03-03T07:52:57.467Z,102064.72
2023-03-03T07:55:31.860Z,102059.75
2023-03-03T07:58:22.378Z,102044.66
2023-03-03T08:01:27.423Z,102071.00
2023-03-03T08:04:00.928Z,102068.97
2023-03-03T08:06:37.009Z,102066.72
2023-03-03T08:09:10.361Z,102074.13
2023-03-03T08:11:59.336Z,102055.72
2023-03-03T08:14:29.053Z,102061.94
2023-03-03T08:16:59.794Z,102065.66
2023-03-03T08:19:31.184Z,102067.69
2023-03-03T08:22:10.072Z,102079.81
2023-03-03T08:24:39.048Z,102043.06
2023-03-03T08:27:08.337Z,102050.31
2023-03-03T08:29:37.820Z,102045.97
2023-03-03T08:32:05.400Z,102046.88
2023-03-03T08:34:32.758Z,102056.94
2023-03-03T08:36:59.898Z,102060.63
2023-03-03T08:39:26.917Z,102058.16
2023-03-03T08:41:54.151Z,102062.50
2023-03-03T08:44:21.271Z,102043.13
2023-03-03T08:46:50.273Z,102042.22
2023-03-03T08:49:19.252Z,102045.13
2023-03-03T08:51:47.048Z,102069.06
2023-03-03T08:54:14.189Z,102061.69
2023-03-03T08:56:41.353Z,102054.13
2023-03-03T08:59:08.496Z,102054.13
2023-03-03T09:01:39.595Z,102053.03
2023-03-03T09:04:06.863Z,102049.13
2023-03-03T09:06:34.026Z,102049.50
2023-03-03T09:09:03.802Z,102054.91
2023-03-03T09:11:32.782Z,102053.16
2023-03-03T09:14:07.972Z,102033.16
2023-03-03T09:16:40.506Z,102040.59
2023-03-03T09:19:29.947Z,102050.88
2023-03-03T09:22:19.092Z,102057.50
2023-03-03T09:24:48.959Z,102065.06
2023-03-03T09:27:39.234Z,102051.13
2023-03-03T09:31:01.688Z,102063.94
2023-03-03T09:33:35.835Z,102052.91
2023-03-03T09:36:24.302Z,102062.19
2023-03-03T09:38:53.357Z,102038.41
2023-03-03T09:41:41.953Z,102051.88
2023-03-03T09:44:17.927Z,102054.44
2023-03-03T09:46:54.671Z,102048.59
2023-03-03T09:49:28.876Z,102060.69
2023-03-03T09:52:19.971Z,102038.81
2023-03-03T09:55:14.910Z,102070.88
2023-03-03T09:58:08.151Z,102063.22
2023-03-03T10:00:55.052Z,102070.41
2023-03-03T10:04:01.140Z,102062.22
2023-03-03T10:07:15.697Z,102053.59
2023-03-03T10:09:57.700Z,102060.19
2023-03-03T10:12:51.622Z,102070.25
2023-03-03T10:15:34.185Z,102059.75
2023-03-03T10:18:13.767Z,102044.75
2023-03-03T10:21:03.451Z,102052.00
2023-03-03T10:24:27.583Z,102063.38
2023-03-03T10:27:21.162Z,102060.72
2023-03-03T10:30:39.842Z,102053.16
2023-03-03T10:33:46.112Z,102042.94
2023-03-03T10:36:26.006Z,102051.50
2023-03-03T10:39:13.525Z,102060.50
2023-03-03T10:41:51.211Z,102031.06
2023-03-03T10:44:33.933Z,102059.72
2023-03-03T10:47:08.432Z,102059.00
2023-03-03T10:50:12.617Z,102039.16
2023-03-03T10:53:17.278Z,102031.13
2023-03-03T10:56:01.320Z,102036.59
2023-03-03T10:58:56.216Z,102059.31
2023-03-03T11:01:48.863Z,102047.16
2023-03-03T11:04:26.356Z,102054.22
2023-03-03T11:07:20.721Z,102055.22
2023-03-03T11:10:02.417Z,102063.16
2023-03-03T11:12:48.517Z,102059.34
2023-03-03T11:15:32.067Z,102054.22
2023-03-03T11:18:29.487Z,102046.94
2023-03-03T11:21:09.544Z,102051.34
2023-03-03T11:23:48.927Z,102060.59
2023-03-03T11:26:30.612Z,102057.13
2023-03-03T11:29:10.864Z,102056.88
2023-03-03T11:31:44.989Z,102053.97
2023-03-03T11:34:16.284Z,102046.78
2023-03-03T11:36:51.391Z,102046.06
2023-03-03T11:39:22.263Z,102045.63
2023-03-03T11:42:04.740Z,102043.47
2023-03-03T11:44:57.411Z,102031.13
2023-03-03T11:47:51.584Z,102034.03
2023-03-03T11:50:27.635Z,102023.69
2023-03-03T11:53:17.241Z,102039.97
2023-03-03T11:55:46.664Z,102047.75
2023-03-03T11:58:32.400Z,102042.66
2023-03-03T12:01:23.457Z,102033.94
2023-03-03T12:03:57.777Z,102011.13
2023-03-03T12:06:47.670Z,102003.06
2023-03-03T12:09:57.866Z,102021.41
2023-03-03T12:12:45.269Z,101996.09
2023-03-03T12:15:16.430Z,102005.75
2023-03-03T12:18:11.877Z,102000.16
2023-03-03T12:21:11.536Z,101991.78
2023-03-03T12:24:13.124Z,102006.63
2023-03-03T12:27:03.257Z,101999.56
2023-03-03T12:29:51.713Z,101974.09
2023-03-03T12:32:23.619Z,101988.31
2023-03-03T12:34:58.008Z,101976.16
2023-03-03T12:37:49.486Z,101978.88
2023-03-03T12:40:21.406Z,101989.34
2023-03-03T12:43:24.426Z,101979.84
2023-03-03T12:46:28.569Z,101984.88
2023-03-03T12:48:59.609Z,101974.16
2023-03-03T12:51:38.855Z,101964.78
2023-03-03T12:54:26.577Z,101962.28
2023-03-03T12:56:58.011Z,101943.50
2023-03-03T13:00:17.693Z,101976.09
2023-03-03T13:03:07.079Z,101970.94
2023-03-03T13:05:40.258Z,101967.19
2023-03-03T13:08:31.830Z,101952.97
2023-03-03T13:11:32.196Z,101958.56
2023-03-03T13:14:27.052Z,101944.19
2023-03-03T13:17:13.837Z,101949.81
2023-03-03T13:19:58.786Z,101949.13
2023-03-03T13:22:39.651Z,101943.91
2023-03-03T13:25:20.626Z,101950.63
2023-03-03T13:27:52.574Z,101944.63
2023-03-03T13:30:33.880Z,101944.78
2023-03-03T13:33:18.841Z,101931.66
2023-03-03T13:36:13.256Z,101943.75
2023-03-03T13:38:57.546Z,101925.34
2023-03-03T13:41:49.252Z,101935.19
2023-03-03T13:44:49.579Z,101915.66
2023-03-03T13:47:57.897Z,101938.63
2023-03-03T13:50:51.485Z,101933.44
2023-03-03T13:53:46.247Z,101932.63
2023-03-03T13:56:24.857Z,101909.72
2023-03-03T13:59:04.877Z,101913.31
2023-03-03T14:01:58.617Z,101926.28
2023-03-03T14:04:35.251Z,101910.47
2023-03-03T14:07:12.022Z,101905.31
2023-03-03T14:10:09.566Z,101908.03
2023-03-03T14:13:00.447Z,101909.84
2023-03-03T14:15:41.283Z,101901.03
2023-03-03T14:18:23.919Z,101882.47
2023-03-03T14:20:52.913Z,101899.25
2023-03-03T14:23:57.585Z,101882.53
2023-03-03T14:26:30.686Z,101879.97
2023-03-03T14:29:24.939Z,101901.16
2023-03-03T14:31:56.140Z,101883.22
2023-03-03T14:34:24.784Z,101893.97
2023-03-03T14:36:54.285Z,101879.34
2023-03-03T14:39:39.789Z,101889.28
2023-03-03T14:42:32.497Z,101869.06
2023-03-03T14:45:05.379Z,101863.59
2023-03-03T14:47:36.020Z,101874.53
2023-03-03T14:50:40.595Z,101869.22
2023-03-03T14:53:14.097Z,101863.81
2023-03-03T14:55:44.995Z,101859.59
2023-03-03T14:58:39.650Z,101868.47
2023-03-03T15:01:15.002Z,101842.88
2023-03-03T15:03:50.547Z,101851.63
2023-03-03T15:06:46.411Z,101835.81
2023-03-03T15:09:31.758Z,101863.22
2023-03-03T15:12:07.174Z,101855.28
2023-03-03T15:14:45.061Z,101857.03
2023-03-03T15:17:20.800Z,101855.31
2023-03-03T15:19:56.401Z,101829.72
2023-03-03T15:22:51.334Z,101854.44
2023-03-03T15:25:43.491Z,101840.31
2023-03-03T15:28:37.470Z,101847.41
2023-03-03T15:32:10.675Z,101839.50
2023-03-03T15:34:47.643Z,101808.59
2023-03-03T15:37:28.918Z,101834.19
2023-03-03T15:40:07.452Z,101820.94
2023-03-03T15:42:51.889Z,101831.50
2023-03-03T15:45:57.392Z,101831.56
2023-03-03T15:48:51.962Z,101806.84
2023-03-03T15:51:50.821Z,101822.75
2023-03-03T15:54:44.456Z,101799.78
2023-03-03T15:57:35.163Z,101802.44
2023-03-03T16:00:35.623Z,101817.44
2023-03-03T16:03:14.039Z,101823.59
2023-03-03T16:05:51.477Z,101804.19
2023-03-03T16:08:35.693Z,101799.78
2023-03-03T16:11:29.615Z,101797.16
2023-03-03T16:14:34.729Z,101810.38
2023-03-03T16:17:22.945Z,101788.31
2023-03-03T16:20:00.445Z,101800.69
2023-03-03T16:22:57.990Z,101813.03
2023-03-03T16:25:56.443Z,101795.38
2023-03-03T16:28:29.171Z,101804.22
2023-03-03T16:31:13.504Z,101805.09
2023-03-03T16:34:17.730Z,101803.31
2023-03-03T16:37:08.264Z,101806.84
2023-03-03T16:39:42.998Z,101802.44
2023-03-03T16:42:31.093Z,101801.53
2023-03-03T16:45:11.726Z,101799.78
2023-03-03T16:48:00.721Z,101811.22
2023-03-03T16:50:56.409Z,101808.59
2023-03-03T16:53:46.107Z,101798.88
2023-03-03T16:56:29.880Z,101796.22
2023-03-03T16:59:33.436Z,101793.56
2023-03-03T17:02:41.172Z,101795.34
2023-03-03T17:05:47.368Z,101791.81
2023-03-03T17:08:49.404Z,101800.63
2023-03-03T17:11:53.203Z,101803.25
2023-03-03T17:14:35.144Z,101801.50
2023-03-03T17:17:29.970Z,101806.75
2023-03-03T17:20:24.798Z,101800.59
2023-03-03T17:23:01.290Z,101802.38
2023-03-03T17:25:47.236Z,101782.91
2023-03-03T17:28:40.132Z,101805.88
2023-03-03T17:31:17.639Z,101800.53
2023-03-03T17:34:09.841Z,101782.84
2023-03-03T17:36:51.733Z,101800.56
2023-03-03T17:39:38.093Z,101793.47
2023-03-03T17:42:24.455Z,101795.13
2023-03-03T17:45:13.528Z,101794.25
2023-03-03T17:48:18.643Z,101803.94
2023-03-03T17:51:15.763Z,101799.47
2023-03-03T17:54:10.492Z,101792.47
2023-03-03T17:57:24.276Z,101805.69
2023-03-03T17:59:58.841Z,101813.53
2023-03-03T18:02:52.250Z,101803.84
2023-03-03T18:05:39.878Z,101799.47
2023-03-03T18:08:23.398Z,101798.59
2023-03-03T18:11:15.430Z,101789.75
2023-03-03T18:14:16.133Z,101777.41
2023-03-03T18:16:58.560Z,101803.84
2023-03-03T18:20:03.064Z,101788.94
2023-03-03T18:22:32.756Z,101788.94
2023-03-03T18:25:09.679Z,101775.72
2023-03-03T18:27:40.288Z,101795.94
2023-03-03T18:30:24.994Z,101778.31
2023-03-03T18:32:59.384Z,101779.22
2023-03-03T18:35:46.695Z,101772.97
2023-03-03T18:38:17.607Z,101775.66
2023-03-03T18:41:14.498Z,101773.00
2023-03-03T18:43:52.318Z,101771.28
2023-03-03T18:46:27.482Z,101776.59
2023-03-03T18:49:10.883Z,101757.06
2023-03-03T18:51:41.054Z,101775.69
2023-03-03T18:54:30.572Z,101770.41
2023-03-03T18:56:58.332Z,101772.06
2023-03-03T18:59:35.910Z,101776.53
2023-03-03T19:02:39.890Z,101778.25
2023-03-03T19:05:27.626Z,101773.03
2023-03-03T19:08:03.536Z,101780.97
2023-03-03T19:10:40.426Z,101773.91
2023-03-03T19:13:34.978Z,101770.41
2023-03-03T19:16:08.590Z,101760.66
2023-03-03T19:18:43.306Z,101778.09
2023-03-03T19:21:28.910Z,101760.56
2023-03-03T19:24:03.804Z,101757.13
2023-03-03T19:26:46.960Z,101760.66
2023-03-03T19:29:22.733Z,101758.94
2023-03-03T19:32:09.341Z,101759.84
2023-03-03T19:34:44.321Z,101740.41
2023-03-03T19:37:53.917Z,101766.03
2023-03-03T19:40:41.613Z,101756.28
2023-03-03T19:43:45.810Z,101754.53
2023-03-03T19:46:26.892Z,101749.28
2023-03-03T19:49:03.430Z,101737.78
2023-03-03T19:51:36.156Z,101751.91
2023-03-03T19:54:13.217Z,101748.28
2023-03-03T19:56:47.194Z,101749.16
2023-03-03T19:59:48.675Z,101757.16
2023-03-03T20:02:57.012Z,101753.63
2023-03-03T20:05:46.441Z,101750.97
2023-03-03T20:08:45.398Z,101757.19
2023-03-03T20:11:48.964Z,101762.41
2023-03-03T20:14:27.143Z,101758.88
2023-03-03T20:16:58.224Z,101761.59
2023-03-03T20:19:29.466Z,101751.84
2023-03-03T20:22:26.270Z,101743.88
2023-03-03T20:25:14.259Z,101751.00
2023-03-03T20:27:58.103Z,101752.75
2023-03-03T20:30:32.556Z,101738.53
2023-03-03T20:33:17.047Z,101727.88
2023-03-03T20:35:50.678Z,101754.41
2023-03-03T20:38:32.281Z,101737.59
2023-03-03T20:41:18.362Z,101747.34
2023-03-03T20:44:05.996Z,101746.50
2023-03-03T20:47:03.888Z,101747.31
2023-03-03T20:50:16.131Z,101723.56
2023-03-03T20:52:52.094Z,101740.25
2023-03-03T20:55:35.068Z,101713.72
2023-03-03T20:58:11.145Z,101727.84
2023-03-03T21:00:50.625Z,101723.44
2023-03-03T21:03:38.847Z,101726.94
2023-03-03T21:06:18.182Z,101706.72
2023-03-03T21:08:50.103Z,101720.00
2023-03-03T21:11:19.982Z,101692.50
2023-03-03T21:13:54.351Z,101715.50
2023-03-03T21:16:22.098Z,101711.16
2023-03-03T21:19:15.431Z,101718.19
2023-03-03T21:21:47.408Z,101698.84
2023-03-03T21:24:19.778Z,101690.03
2023-03-03T21:26:59.550Z,101682.16
2023-03-03T21:29:33.956Z,101699.84
2023-03-03T21:32:09.196Z,101701.56
2023-03-03T21:34:38.585Z,101690.06
2023-03-03T21:37:11.527Z,101686.50
2023-03-03T21:39:44.163Z,101693.59
2023-03-03T21:42:14.684Z,101686.31
2023-03-03T21:44:49.203Z,101680.31
2023-03-03T21:47:20.929Z,101672.34
2023-03-03T21:49:51.680Z,101690.00
2023-03-03T21:52:21.134Z,101665.41
2023-03-03T21:54:51.047Z,101668.94
2023-03-03T21:57:20.173Z,101674.25
2023-03-03T21:59:51.257Z,101679.41
2023-03-03T22:02:18.394Z,101682.13
2023-03-03T22:04:45.760Z,101670.56
2023-03-03T22:07:14.088Z,101670.50
2023-03-03T22:09:41.188Z,101652.97
2023-03-03T22:12:09.371Z,101668.03
2023-03-03T22:14:36.785Z,101667.16
2023-03-03T22:17:04.019Z,101662.81
2023-03-03T22:19:31.477Z,101640.66
2023-03-03T22:21:58.529Z,101650.41
2023-03-03T22:24:25.472Z,101634.50
2023-03-03T22:26:52.606Z,101637.22
2023-03-03T22:29:23.157Z,101639.88
2023-03-03T22:31:51.793Z,101635.44
2023-03-03T22:34:19.192Z,101629.28
2023-03-03T22:36:46.185Z,101641.59
2023-03-03T22:39:13.247Z,101611.59
2023-03-03T22:41:40.424Z,101617.53
2023-03-03T22:44:07.535Z,101636.06
2023-03-03T22:46:34.627Z,101607.97
2023-03-03T22:49:01.844Z,101614.19
2023-03-03T22:51:28.870Z,101604.50
2023-03-03T22:53:55.973Z,101613.22
2023-03-03T22:56:24.359Z,101601.03
2023-03-03T22:58:52.646Z,101575.47
2023-03-03T23:01:21.663Z,101577.25
2023-03-03T23:03:50.375Z,101569.38
2023-03-03T23:06:18.468Z,101582.47
2023-03-03T23:08:47.205Z,101572.78
2023-03-03T23:11:15.495Z,101593.06
2023-03-03T23:13:43.563Z,101591.22
2023-03-03T23:16:12.677Z,101578.91
2023-03-03T23:18:41.580Z,101575.38
2023-03-03T23:21:10.587Z,101584.22
2023-03-03T23:23:38.533Z,101574.53
2023-03-03T23:26:06.093Z,101576.31
2023-03-03T23:28:34.815Z,101567.44
2023-03-03T23:31:04.142Z,101548.94
2023-03-03T23:33:32.542Z,101556.84
2023-03-03T23:36:01.759Z,101539.19
2023-03-03T23:38:30.707Z,101540.09
2023-03-03T23:41:00.341Z,101559.44
2023-03-03T23:43:27.870Z,101525.91
2023-03-03T23:45:55.065Z,101551.41
2023-03-03T23:48:23.421Z,101553.09
2023-03-03T23:50:51.469Z,101544.25
2023-03-03T23:53:20.078Z,101543.31
2023-03-03T23:55:47.185Z,101545.25
2023-03-03T23:58:14.194Z,101540.69
